createdAt,value
2023-01-11T00:16:47.196Z,100695.45
2023-01-11T00:19:14.373Z,100697.07
2023-01-11T00:21:41.425Z,100691.86
2023-01-11T00:24:08.352Z,100698.66
2023-01-11T00:26:35.148Z,100697.23
2023-01-11T00:29:01.982Z,100693.86
2023-01-11T00:31:29.181Z,100692.73
2023-01-11T00:33:56.400Z,100693.38
2023-01-11T00:36:23.119Z,100690.11
2023-01-11T00:38:53.880Z,100688.81
2023-01-11T00:41:40.169Z,100689.02
2023-01-11T00:44:27.954Z,100686.73
2023-01-11T00:47:13.329Z,100692.70
2023-01-11T00:49:40.021Z,100703.23
2023-01-11T00:52:08.321Z,100700.31
2023-01-11T00:54:39.985Z,100703.59
2023-01-11T00:57:07.133Z,100698.92
2023-01-11T00:59:34.795Z,100694.20
2023-01-11T01:02:03.057Z,100691.33
2023-01-11T01:04:31.326Z,100694.31
2023-01-11T01:06:58.273Z,100697.98
2023-01-11T01:09:25.479Z,100703.55
2023-01-11T01:11:52.374Z,100709.48
2023-01-11T01:14:25.323Z,100707.88
2023-01-11T01:16:52.992Z,100709.22
2023-01-11T01:19:21.624Z,100718.84
2023-01-11T01:21:49.515Z,100714.94
2023-01-11T01:24:16.228Z,100714.99
2023-01-11T01:26:43.149Z,100718.27
2023-01-11T01:29:09.814Z,100721.34
2023-01-11T01:31:36.831Z,100722.13
2023-01-11T01:34:03.799Z,100722.84
2023-01-11T01:36:30.710Z,100719.96
2023-01-11T01:38:58.654Z,100720.84
2023-01-11T01:41:26.553Z,100714.77
2023-01-11T01:43:54.688Z,100713.56
2023-01-11T01:46:22.988Z,100721.29
2023-01-11T01:48:51.919Z,100712.83
2023-01-11T01:51:26.112Z,100717.19
2023-01-11T01:53:54.236Z,100718.11
2023-01-11T01:56:29.755Z,100714.48
2023-01-11T01:59:02.818Z,100712.39
2023-01-11T02:01:48.145Z,100716.33
2023-01-11T02:04:27.405Z,100714.80
2023-01-11T02:06:59.299Z,100712.25
2023-01-11T02:09:54.761Z,100713.94
2023-01-11T02:12:22.040Z,100724.13
2023-01-11T02:14:49.114Z,100729.85
2023-01-11T02:17:15.981Z,100733.72
2023-01-11T02:19:56.836Z,100732.40
2023-01-11T02:22:48.345Z,100740.41
2023-01-11T02:25:52.244Z,100742.05
2023-01-11T02:28:30.991Z,100744.45
2023-01-11T02:31:03.778Z,100724.73
2023-01-11T02:33:33.282Z,100718.46
2023-01-11T02:36:43.673Z,100714.61
2023-01-11T02:39:52.034Z,100726.61
2023-01-11T02:42:53.622Z,100736.61
2023-01-11T02:45:52.537Z,100740.34
2023-01-11T02:48:23.179Z,100740.16
2023-01-11T02:51:16.352Z,100740.71
2023-01-11T02:53:54.432Z,100739.74
2023-01-11T02:56:25.360Z,100736.52
2023-01-11T02:58:53.252Z,100730.20
2023-01-11T03:01:22.008Z,100725.90
2023-01-11T03:03:49.653Z,100726.51
2023-01-11T03:06:19.947Z,100731.20
2023-01-11T03:09:10.417Z,100735.15
2023-01-11T03:12:23.090Z,100728.97
2023-01-11T03:15:11.211Z,100728.77
2023-01-11T03:17:40.763Z,100733.54
2023-01-11T03:20:37.139Z,100740.30
2023-01-11T03:23:36.239Z,100738.46
2023-01-11T03:26:08.824Z,100747.88
2023-01-11T03:28:57.595Z,100754.52
2023-01-11T03:31:46.212Z,100762.34
2023-01-11T03:34:22.546Z,100762.85
2023-01-11T03:36:53.516Z,100758.40
2023-01-11T03:39:46.088Z,100760.27
2023-01-11T03:42:14.723Z,100753.45
2023-01-11T03:44:46.339Z,100748.88
2023-01-11T03:47:14.967Z,100745.33
2023-01-11T10:18:31.923Z,100781.83
2023-01-11T10:18:38.363Z,100774.40
2023-01-11T10:20:46.671Z,100766.19
2023-01-11T10:23:21.039Z,100773.58
2023-01-11T10:25:54.229Z,100766.96
2023-01-11T10:29:01.232Z,100762.98
2023-01-11T10:31:48.461Z,100753.11
2023-01-11T10:34:38.305Z,100749.30
2023-01-11T10:37:26.053Z,100754.18
2023-01-11T10:40:37.742Z,100756.83
2023-01-11T10:43:16.706Z,100767.33
2023-01-11T10:45:58.388Z,100765.56
2023-01-11T10:48:27.507Z,100761.02
2023-01-11T10:50:57.848Z,100762.40
2023-01-11T10:53:24.919Z,100760.54
2023-01-11T10:56:05.008Z,100756.95
2023-01-11T10:58:48.027Z,100756.35
2023-01-11T11:01:55.182Z,100751.89
2023-01-11T11:04:56.289Z,100741.20
2023-01-11T11:07:34.703Z,100736.85
2023-01-11T11:10:25.997Z,100736.03
2023-01-11T11:13:16.927Z,100736.02
2023-01-11T11:15:50.637Z,100736.41
2023-01-11T11:18:17.548Z,100736.38
2023-01-11T11:20:46.434Z,100736.48
2023-01-11T11:23:17.916Z,100737.47
2023-01-11T11:26:05.195Z,100729.81
2023-01-11T11:28:33.297Z,100725.00
2023-01-11T11:31:02.156Z,100725.01
2023-01-11T11:33:36.936Z,100720.92
2023-01-11T11:36:11.528Z,100729.44
2023-01-11T11:38:42.429Z,100731.37
2023-01-11T11:41:11.590Z,100734.82
2023-01-11T11:43:39.656Z,100736.64
2023-01-11T11:46:19.373Z,100738.92
2023-01-11T11:49:13.132Z,100732.52
2023-01-11T11:51:40.187Z,100719.46
2023-01-11T11:54:07.086Z,100722.44
2023-01-11T11:56:34.681Z,100715.48
2023-01-11T11:59:09.308Z,100721.61
2023-01-11T12:01:37.778Z,100733.41
2023-01-11T12:04:21.305Z,100740.44
2023-01-11T16:27:53.690Z,100809.73
2023-01-11T16:30:20.713Z,100814.36
2023-01-11T16:32:47.756Z,100819.16
2023-01-11T16:35:22.058Z,100818.08
2023-01-11T16:37:59.628Z,100820.39
2023-01-11T16:40:37.159Z,100820.25
2023-01-11T16:43:17.401Z,100818.58
2023-01-11T16:45:45.830Z,100812.75
2023-01-11T16:48:14.105Z,100807.71
2023-01-11T16:51:10.007Z,100804.38
2023-01-11T16:53:38.246Z,100809.26
2023-01-11T16:56:18.774Z,100803.52
2023-01-11T16:59:24.515Z,100796.88
2023-01-11T17:01:56.400Z,100800.51
2023-01-11T17:04:27.873Z,100797.46
2023-01-11T17:06:55.171Z,100795.42
2023-01-11T17:09:22.331Z,100793.46
2023-01-11T17:11:50.529Z,100785.60
2023-01-11T17:14:30.299Z,100781.17
2023-01-11T17:17:01.673Z,100780.86
2023-01-11T17:19:35.934Z,100785.14
2023-01-11T17:22:06.935Z,100782.77
2023-01-11T17:24:40.686Z,100786.04
2023-01-11T17:27:09.488Z,100788.38
2023-01-11T17:29:38.592Z,100786.02
2023-01-11T17:32:07.724Z,100782.04
2023-01-11T17:34:36.172Z,100784.17
2023-01-11T17:37:10.512Z,100781.10
2023-01-11T17:39:39.174Z,100785.04
2023-01-11T17:42:26.146Z,100787.06
2023-01-11T17:45:12.607Z,100775.38
2023-01-11T17:47:48.390Z,100778.56
2023-01-11T17:50:31.193Z,100773.13
2023-01-11T17:53:02.640Z,100769.17
2023-01-11T17:55:29.772Z,100767.76
2023-01-11T17:58:14.222Z,100762.27
2023-01-11T18:00:43.656Z,100763.67
2023-01-11T18:03:18.654Z,100755.48
2023-01-11T18:05:46.681Z,100744.42
2023-01-11T18:08:21.544Z,100740.23
2023-01-11T18:10:54.527Z,100730.86
2023-01-11T18:13:31.481Z,100728.26
2023-01-11T18:15:58.728Z,100723.61
2023-01-11T18:18:42.818Z,100724.92
2023-01-11T18:21:26.365Z,100730.14
2023-01-11T18:24:11.789Z,100733.69
2023-01-11T18:26:42.987Z,100731.95
2023-01-11T18:29:19.338Z,100731.29
2023-01-11T18:31:46.516Z,100730.61
2023-01-11T18:34:13.616Z,100728.93
2023-01-11T18:36:40.727Z,100729.63
2023-01-11T18:39:11.980Z,100724.25
2023-01-11T18:41:58.059Z,100722.05
2023-01-11T18:44:25.276Z,100720.09
2023-01-11T18:46:52.400Z,100721.95
2023-01-11T18:49:19.437Z,100720.31
2023-01-11T18:51:46.419Z,100714.84
2023-01-11T18:54:15.482Z,100705.40
2023-01-11T18:56:42.530Z,100704.64
2023-01-11T18:59:09.612Z,100703.66
2023-01-11T19:01:54.039Z,100703.15
2023-01-11T19:04:23.959Z,100698.89
2023-01-11T19:06:52.359Z,100692.67
2023-01-11T19:09:19.317Z,100689.77
2023-01-11T19:11:46.178Z,100685.22
2023-01-11T19:14:13.075Z,100681.77
2023-01-11T19:16:40.194Z,100681.79
2023-01-11T19:19:07.102Z,100674.16
2023-01-11T19:21:33.988Z,100670.45
2023-01-11T19:24:01.040Z,100668.34
2023-01-11T19:26:28.098Z,100666.85
2023-01-11T19:28:54.974Z,100672.59
2023-01-11T19:31:21.949Z,100668.37
2023-01-11T19:33:49.094Z,100663.08
2023-01-11T19:36:16.276Z,100663.27
2023-01-11T19:38:43.223Z,100666.06
2023-01-11T19:41:10.424Z,100662.93
2023-01-11T19:43:44.859Z,100664.95
2023-01-11T19:46:13.600Z,100660.29
2023-01-11T19:48:40.692Z,100654.27
2023-01-11T19:51:08.893Z,100658.45
2023-01-11T19:53:36.275Z,100663.38
2023-01-11T19:56:08.407Z,100660.27
2023-01-11T19:58:38.594Z,100659.24
2023-01-11T20:01:11.066Z,100656.39
2023-01-11T20:03:40.866Z,100654.56
2023-01-11T20:06:08.410Z,100650.63
2023-01-11T20:08:38.428Z,100654.29
